Portada
METAR-TAF:

METAR-TAF

Aeroports :

Base aèria

Meppen, Alemanya

latitud: 52-43-24N, longitud: 007-19-35E, altitud: 21 m

Observació

L'informe es va fer fa 16 minuts, a les 14:20 UTC
Vent 6 kt del Oest
Temperatura 4°C
Humitat 81%
Pressió 998 hPa
Visibilitat 10 km o més
Núvols disperses a una alçada de 1200 ft, Cumulonimbus.
Núvols disperses a una alçada de 6000 ft
xàfecs en les proximitats

METAR: ETWM 261420Z 28006KT 9999 VCSH SCT012CB SCT060 04/01 Q0998 RESHRA BLU+

Hora: 15:36 (14:36 UTC)


TAF: manca

Observacions i pronòstics meteorològics de més de 4000 aeroports (METAR i TAF).

Les estacions disponibles són els punts grocs i vermells al mapa.

Posi el ratolí al punt desitjat per veure el nom de l'estació.

Feu clic per veure les observacions i els pronòstics meteorològics.

Per canviar el mapa: feu clic els botons verds amb una creu de color negre per apropar; al botó verd amb un guió per allunyar la imatge; o en les fletxes verdes per a mapes adjacents.


METAR-TAF: